Time;durP1;ratioP1;P1;durP2;ratioP2;P2;SDS_P1;SDS_P2;PMS_P1;PMS_P2;Temp;Humidity;BMP_temperature;BMP_pressure;BME280_temperature;BME280_humidity;BME280_pressure;Samples;Min_cycle;Max_cycle;Signal;HPM_P1;HPM_P2
2022/09/26 00:01:27;;;;;;;5.68;1.55;;;10.70;86.80;;;;;;5014139;28;20037;-46
2022/09/26 00:03:56;;;;;;;3.22;1.27;;;10.70;86.60;;;;;;5014993;28;20030;-46
2022/09/26 00:06:25;;;;;;;7.95;2.40;;;10.80;86.40;;;;;;5031965;28;20029;-45
2022/09/26 00:08:53;;;;;;;7.38;1.30;;;10.80;86.20;;;;;;5032233;28;20075;-47
2022/09/26 00:11:28;;;;;;;4.57;1.42;;;10.80;86.10;;;;;;5029219;28;20066;-48
2022/09/26 00:13:58;;;;;;;3.78;1.20;;;10.90;86.00;;;;;;5014826;28;20041;-45
2022/09/26 00:16:25;;;;;;;2.85;1.58;;;10.90;86.00;;;;;;5031807;28;20033;-46
2022/09/26 00:18:55;;;;;;;4.13;1.40;;;10.90;86.00;;;;;;5031971;28;20439;-48
2022/09/26 00:21:22;;;;;;;3.92;1.27;;;10.90;86.00;;;;;;5030769;28;20052;-46
2022/09/26 00:23:49;;;;;;;2.25;1.10;;;10.90;85.90;;;;;;5014659;28;20044;-45
2022/09/26 00:26:18;;;;;;;3.58;1.27;;;10.90;85.80;;;;;;5012456;28;20155;-51
2022/09/26 00:28:45;;;;;;;8.55;1.60;;;10.90;85.70;;;;;;5013258;28;20026;-47
2022/09/26 00:31:17;;;;;;;2.42;1.15;;;10.90;85.80;;;;;;5032035;28;20033;-47
2022/09/26 00:33:48;;;;;;;4.70;1.65;;;10.90;85.80;;;;;;5032066;28;20041;-45
2022/09/26 00:36:15;;;;;;;5.38;1.42;;;10.90;85.80;;;;;;5014338;28;20033;-45
2022/09/26 00:38:45;;;;;;;3.13;0.98;;;10.90;85.80;;;;;;5029903;28;20049;-47
2022/09/26 00:41:13;;;;;;;2.25;1.13;;;10.90;85.70;;;;;;5029910;28;20072;-46
2022/09/26 00:43:47;;;;;;;4.47;1.20;;;10.90;85.70;;;;;;5017141;28;20069;-47
2022/09/26 00:46:39;;;;;;;2.60;1.17;;;11.00;85.60;;;;;;5031148;28;20415;-47
2022/09/26 00:49:28;;;;;;;3.38;1.27;;;11.00;85.50;;;;;;5018807;28;20041;-47
2022/09/26 00:52:02;;;;;;;4.03;1.70;;;11.00;85.30;;;;;;5014104;28;20026;-45
2022/09/26 00:54:33;;;;;;;5.07;1.52;;;11.00;85.40;;;;;;5031428;28;20025;-45
2022/09/26 00:57:05;;;;;;;2.85;1.55;;;11.00;85.50;;;;;;5012763;28;20041;-46
2022/09/26 00:59:42;;;;;;;3.53;1.55;;;11.00;85.60;;;;;;5031236;28;20045;-45
2022/09/26 01:02:09;;;;;;;3.70;1.35;;;11.00;85.60;;;;;;5031285;28;20048;-47
2022/09/26 01:04:38;;;;;;;5.03;1.80;;;11.00;85.50;;;;;;5030662;28;20049;-48
2022/09/26 01:07:10;;;;;;;5.35;1.65;;;11.00;85.60;;;;;;5029877;28;20025;-46
2022/09/26 01:09:38;;;;;;;4.25;1.63;;;11.00;85.60;;;;;;5030307;28;20017;-45
2022/09/26 01:12:07;;;;;;;4.70;1.45;;;11.00;85.70;;;;;;5012278;28;20057;-45
2022/09/26 01:14:35;;;;;;;4.88;1.55;;;11.00;85.70;;;;;;5030459;28;20029;-50
2022/09/26 01:17:03;;;;;;;3.13;1.42;;;10.90;85.70;;;;;;5012398;28;20033;-47
2022/09/26 01:20:06;;;;;;;5.80;1.55;;;10.90;85.90;;;;;;5030856;28;20099;-48
2022/09/26 01:23:10;;;;;;;3.75;1.50;;;10.90;85.90;;;;;;5030858;28;20018;-45
2022/09/26 01:25:55;;;;;;;5.00;1.45;;;10.90;86.10;;;;;;5030755;28;20022;-51
2022/09/26 01:28:48;;;;;;;3.85;1.33;;;10.90;86.10;;;;;;5029773;28;20021;-49
2022/09/26 01:31:40;;;;;;;4.65;1.70;;;10.90;86.10;;;;;;5030207;28;20033;-47
2022/09/26 01:34:20;;;;;;;4.75;1.77;;;10.90;86.30;;;;;;5030825;28;20113;-45
2022/09/26 01:37:24;;;;;;;2.55;1.48;;;10.90;86.20;;;;;;5029674;28;20033;-47
2022/09/26 01:40:07;;;;;;;2.60;1.50;;;10.90;86.30;;;;;;5022930;28;20156;-46
2022/09/26 01:43:11;;;;;;;3.05;1.48;;;10.90;86.40;;;;;;5028430;28;20042;-47
2022/09/26 01:46:15;;;;;;;6.28;1.65;;;10.90;86.20;;;;;;5030242;28;20358;-45
2022/09/26 01:48:56;;;;;;;3.58;1.45;;;10.90;86.10;;;;;;5028414;28;20053;-47
2022/09/26 01:51:46;;;;;;;5.90;1.70;;;10.90;86.20;;;;;;5030316;28;20029;-47
2022/09/26 01:54:22;;;;;;;5.90;1.65;;;10.90;86.10;;;;;;5012639;28;20048;-45
2022/09/26 01:56:50;;;;;;;3.97;1.52;;;10.90;86.10;;;;;;5021222;28;20087;-45
2022/09/26 01:59:30;;;;;;;4.45;1.80;;;10.90;86.10;;;;;;5029734;28;20089;-46
2022/09/26 02:02:06;;;;;;;4.30;1.83;;;10.90;86.10;;;;;;5022277;28;20041;-45
2022/09/26 02:04:37;;;;;;;4.03;1.45;;;10.90;86.30;;;;;;5030000;28;20025;-44
2022/09/26 02:07:18;;;;;;;4.43;1.40;;;10.90;86.30;;;;;;5028514;28;20025;-52
2022/09/26 02:10:08;;;;;;;7.78;2.13;;;10.90;86.50;;;;;;5008864;28;20065;-50
2022/09/26 02:12:41;;;;;;;4.43;1.83;;;10.90;86.40;;;;;;5016303;28;20371;-47
2022/09/26 02:15:12;;;;;;;5.90;2.08;;;10.90;86.20;;;;;;5029412;28;20037;-45
2022/09/26 02:17:45;;;;;;;5.85;1.85;;;10.90;86.10;;;;;;5028995;28;20030;-48
2022/09/26 02:20:24;;;;;;;5.63;2.35;;;10.90;86.10;;;;;;5012270;28;20029;-47
2022/09/26 02:22:53;;;;;;;8.63;2.20;;;10.90;86.30;;;;;;5021823;28;20033;-50
2022/09/26 02:25:19;;;;;;;4.78;1.92;;;10.90;86.30;;;;;;5011976;28;20056;-45
2022/09/26 02:27:47;;;;;;;5.80;2.00;;;10.90;86.10;;;;;;5007075;28;20078;-48
2022/09/26 02:30:13;;;;;;;4.53;2.03;;;10.90;86.20;;;;;;5009858;28;20022;-45
2022/09/26 02:32:40;;;;;;;4.18;1.80;;;10.90;86.20;;;;;;4992607;28;20030;-45
2022/09/26 02:37:53;;;;;;;7.90;2.05;;;10.90;86.00;;;;;;5011062;28;20039;-46
2022/09/26 02:40:31;;;;;;;6.05;2.63;;;10.90;86.20;;;;;;5012206;28;20041;-47
2022/09/26 02:43:23;;;;;;;6.15;2.55;;;10.90;86.30;;;;;;5010494;28;20038;-45
2022/09/26 02:46:07;;;;;;;3.55;1.67;;;10.90;86.40;;;;;;5028968;28;20100;-48
2022/09/26 02:48:59;;;;;;;4.25;2.67;;;10.90;86.40;;;;;;5028875;28;20057;-47
2022/09/26 02:52:02;;;;;;;3.70;1.77;;;10.90;86.70;;;;;;5029360;28;20033;-47
2022/09/26 02:55:11;;;;;;;7.00;2.38;;;11.00;86.60;;;;;;5029501;28;20117;-45
2022/09/26 02:57:55;;;;;;;10.55;1.95;;;11.00;86.70;;;;;;5007530;28;20352;-45
2022/09/26 03:00:30;;;;;;;5.18;2.05;;;10.90;86.80;;;;;;5029428;28;20033;-52
2022/09/26 03:03:29;;;;;;;4.18;1.95;;;10.90;87.00;;;;;;5012008;28;20022;-50
2022/09/26 03:05:58;;;;;;;6.53;2.30;;;10.90;87.10;;;;;;5004663;28;20029;-46
2022/09/26 03:08:33;;;;;;;6.97;2.35;;;10.90;87.20;;;;;;5027002;28;20026;-46
2022/09/26 03:11:05;;;;;;;7.00;2.38;;;10.90;87.20;;;;;;4995460;28;20030;-45
2022/09/26 03:13:38;;;;;;;5.38;2.45;;;10.90;87.30;;;;;;5026973;28;20026;-45
2022/09/26 03:16:08;;;;;;;5.82;2.83;;;10.90;87.30;;;;;;5011848;28;20146;-50
2022/09/26 03:18:59;;;;;;;6.90;2.42;;;10.90;87.30;;;;;;5028129;28;20025;-45
2022/09/26 03:21:26;;;;;;;6.55;2.45;;;10.90;87.30;;;;;;5011314;28;20029;-50
2022/09/26 03:23:56;;;;;;;6.10;2.47;;;10.90;87.60;;;;;;5028622;28;20097;-48
2022/09/26 03:26:25;;;;;;;5.53;2.60;;;10.90;87.40;;;;;;5029094;28;20094;-48
2022/09/26 03:28:52;;;;;;;;;;;10.90;87.40;;;;;;5028708;28;20025;-47
2022/09/26 03:31:24;;;;;;;7.65;3.25;;;10.90;87.50;;;;;;5028966;28;20004;-44
2022/09/26 03:33:51;;;;;;;6.13;2.80;;;10.90;87.40;;;;;;5006763;28;20427;-44
2022/09/26 03:36:20;;;;;;;4.47;2.80;;;10.90;87.60;;;;;;5015417;28;20025;-47
2022/09/26 03:38:47;;;;;;;6.43;2.80;;;10.90;87.60;;;;;;5014465;28;20041;-48
2022/09/26 03:41:14;;;;;;;8.25;3.40;;;10.90;87.80;;;;;;5033085;28;20041;-45
2022/09/26 03:43:42;;;;;;;5.63;3.58;;;10.90;87.90;;;;;;5030226;28;20466;-52
2022/09/26 03:46:10;;;;;;;5.25;2.75;;;10.90;88.00;;;;;;5032618;28;20034;-54
2022/09/26 03:48:38;;;;;;;5.28;2.92;;;10.90;88.30;;;;;;5031274;28;20475;-59
2022/09/26 03:51:06;;;;;;;4.97;3.47;;;10.90;88.60;;;;;;5015199;28;20030;-57
2022/09/26 03:53:35;;;;;;;5.28;2.53;;;10.90;88.50;;;;;;5032418;28;20029;-53
2022/09/26 03:56:06;;;;;;;5.40;2.50;;;10.90;88.70;;;;;;5032269;28;20078;-56
2022/09/26 03:58:33;;;;;;;6.95;2.80;;;10.80;89.00;;;;;;5031545;28;20441;-55
2022/09/26 04:01:11;;;;;;;6.97;3.03;;;10.80;89.10;;;;;;5032448;28;20041;-55
2022/09/26 04:03:40;;;;;;;8.65;3.53;;;10.90;89.30;;;;;;5032461;28;20025;-55
2022/09/26 04:06:08;;;;;;;5.68;2.85;;;10.80;89.30;;;;;;5014695;28;20034;-57
2022/09/26 04:08:40;;;;;;;6.88;3.08;;;10.70;89.50;;;;;;5030285;28;20013;-57
2022/09/26 04:11:12;;;;;;;7.40;3.03;;;10.80;89.60;;;;;;5010641;28;20030;-56
2022/09/26 04:13:39;;;;;;;10.02;3.42;;;10.70;89.70;;;;;;5007457;28;20036;-56
2022/09/26 04:16:07;;;;;;;6.15;3.65;;;10.70;89.80;;;;;;5030900;28;20040;-56
2022/09/26 04:18:34;;;;;;;6.93;3.50;;;10.80;89.90;;;;;;5031890;28;20465;-55
2022/09/26 04:21:06;;;;;;;10.05;3.30;;;10.70;89.90;;;;;;5031642;28;20405;-52
2022/09/26 04:23:36;;;;;;;8.77;4.25;;;10.70;90.00;;;;;;5014189;28;20022;-54
2022/09/26 04:26:09;;;;;;;9.02;4.85;;;10.70;90.10;;;;;;5023340;28;20036;-55
2022/09/26 04:28:37;;;;;;;7.22;4.40;;;10.70;90.20;;;;;;5030758;28;20030;-55
2022/09/26 04:31:05;;;;;;;7.00;4.57;;;10.70;90.20;;;;;;5031988;28;20025;-57
2022/09/26 04:33:32;;;;;;;7.90;5.32;;;10.70;90.30;;;;;;5014177;28;20029;-56
2022/09/26 04:36:04;;;;;;;7.78;4.85;;;10.70;90.40;;;;;;5029907;28;20022;-55
2022/09/26 04:38:35;;;;;;;7.63;4.95;;;10.70;90.40;;;;;;5031616;28;20057;-57
2022/09/26 04:41:03;;;;;;;8.07;4.70;;;10.70;90.50;;;;;;5031894;28;20079;-55
2022/09/26 04:43:32;;;;;;;10.98;5.50;;;10.60;90.50;;;;;;5013636;28;20029;-58
2022/09/26 04:46:00;;;;;;;8.37;4.93;;;10.60;90.70;;;;;;5012787;28;20040;-58
2022/09/26 04:48:27;;;;;;;10.13;4.57;;;10.60;90.70;;;;;;5031482;28;20112;-57
2022/09/26 04:50:54;;;;;;;8.10;4.53;;;10.60;90.70;;;;;;5027032;28;20352;-58
2022/09/26 04:53:22;;;;;;;9.75;5.30;;;10.60;90.90;;;;;;5013857;28;20026;-58
2022/09/26 04:55:49;;;;;;;9.55;4.93;;;10.60;90.90;;;;;;5022416;28;20068;-55
2022/09/26 04:58:16;;;;;;;7.82;4.85;;;10.60;90.90;;;;;;5008492;28;20032;-55
2022/09/26 05:00:48;;;;;;;7.60;4.93;;;10.50;91.00;;;;;;4994487;28;20032;-53
2022/09/26 05:03:16;;;;;;;11.90;5.50;;;10.60;91.20;;;;;;5019268;28;20444;-56
2022/09/26 05:05:46;;;;;;;9.48;5.47;;;10.50;91.20;;;;;;5008785;28;20509;-54
2022/09/26 05:08:13;;;;;;;;;;;10.50;91.20;;;;;;5007757;28;20042;-53
2022/09/26 05:10:41;;;;;;;14.02;5.35;;;10.40;91.30;;;;;;5025106;28;19913;-58
2022/09/26 05:13:07;;;;;;;7.63;5.05;;;10.40;91.40;;;;;;4988613;28;20033;-56
2022/09/26 05:15:38;;;;;;;11.10;5.65;;;10.50;91.50;;;;;;5022754;28;20118;-56
2022/09/26 05:18:07;;;;;;;11.75;5.75;;;10.40;91.50;;;;;;5025361;28;20029;-57
2022/09/26 05:20:34;;;;;;;7.68;4.70;;;10.40;91.60;;;;;;5011084;28;20030;-56
2022/09/26 05:23:01;;;;;;;7.90;5.10;;;10.40;91.50;;;;;;5030080;28;20029;-58
2022/09/26 05:28:24;;;;;;;12.02;5.57;;;10.40;91.60;;;;;;5025767;28;20110;-55
2022/09/26 05:30:54;;;;;;;9.88;5.93;;;10.50;91.60;;;;;;5022010;28;20068;-57
2022/09/26 05:33:21;;;;;;;7.53;5.63;;;10.50;91.50;;;;;;5023002;28;20096;-54
2022/09/26 05:35:53;;;;;;;9.77;6.65;;;10.50;91.70;;;;;;5023637;28;20037;-56
2022/09/26 05:38:20;;;;;;;10.57;6.90;;;10.50;91.70;;;;;;5005225;28;20033;-54
2022/09/26 05:40:58;;;;;;;11.00;6.55;;;10.50;91.80;;;;;;5003244;28;20469;-53
2022/09/26 05:43:26;;;;;;;9.88;6.28;;;10.40;91.70;;;;;;5024513;28;20017;-54
2022/09/26 05:45:58;;;;;;;13.93;7.43;;;10.50;91.80;;;;;;5022221;28;20350;-56
2022/09/26 05:48:24;;;;;;;13.60;6.30;;;10.40;91.80;;;;;;5026452;28;20052;-54
2022/09/26 05:50:52;;;;;;;10.45;6.93;;;10.40;91.90;;;;;;5008040;28;20456;-51
2022/09/26 05:53:18;;;;;;;12.40;7.47;;;10.40;91.90;;;;;;5007272;28;20435;-50
2022/09/26 05:55:53;;;;;;;10.20;8.27;;;10.40;92.00;;;;;;5028104;28;20021;-55
2022/09/26 05:58:19;;;;;;;13.88;7.53;;;10.40;92.00;;;;;;5012565;28;20037;-52
2022/09/26 06:00:46;;;;;;;16.50;8.32;;;10.50;92.00;;;;;;5011514;28;20485;-53
2022/09/26 06:03:16;;;;;;;18.75;7.88;;;10.40;92.00;;;;;;5028660;28;20037;-55
2022/09/26 06:05:43;;;;;;;12.77;8.05;;;10.50;92.00;;;;;;5022296;28;20033;-54
2022/09/26 06:08:11;;;;;;;10.73;8.45;;;10.50;92.00;;;;;;5001246;28;20033;-51
2022/09/26 06:10:39;;;;;;;11.43;7.70;;;10.50;91.90;;;;;;5028186;28;20022;-49
2022/09/26 06:13:08;;;;;;;9.77;7.35;;;10.50;92.00;;;;;;5029847;28;20104;-54
2022/09/26 06:15:35;;;;;;;16.80;8.50;;;10.60;92.00;;;;;;5029780;28;20481;-52
2022/09/26 06:18:04;;;;;;;12.25;8.30;;;10.50;91.90;;;;;;5025734;28;20112;-56
2022/09/26 06:20:32;;;;;;;9.23;7.57;;;10.50;91.90;;;;;;5018452;28;20037;-53
2022/09/26 06:23:00;;;;;;;14.25;8.25;;;10.60;92.00;;;;;;5025173;28;20025;-58
2022/09/26 06:25:27;;;;;;;11.25;8.30;;;10.60;91.90;;;;;;5029302;28;20036;-56
2022/09/26 06:27:55;;;;;;;10.50;7.63;;;10.60;91.80;;;;;;5029266;28;20108;-58
2022/09/26 06:30:26;;;;;;;8.30;6.75;;;10.60;91.80;;;;;;5027028;28;20515;-56
2022/09/26 06:32:54;;;;;;;14.15;9.50;;;10.60;91.80;;;;;;5008641;28;20063;-56
2022/09/26 06:35:22;;;;;;;12.52;6.70;;;10.70;91.90;;;;;;5017347;28;20029;-54
2022/09/26 06:37:48;;;;;;;11.57;7.80;;;10.70;91.90;;;;;;5027746;28;20095;-57
2022/09/26 06:40:15;;;;;;;12.68;7.53;;;10.60;91.80;;;;;;5008535;28;20454;-57
2022/09/26 06:42:45;;;;;;;11.15;7.72;;;10.60;91.70;;;;;;4997789;28;20426;-57
2022/09/26 06:45:12;;;;;;;10.75;6.93;;;10.70;91.70;;;;;;5019927;28;20084;-56
2022/09/26 06:47:37;;;;;;;11.23;6.95;;;10.70;91.60;;;;;;4997807;28;20038;-54
2022/09/26 06:50:05;;;;;;;21.15;8.65;;;10.70;91.40;;;;;;5002738;28;20039;-55
2022/09/26 06:52:33;;;;;;;23.40;8.82;;;10.70;91.40;;;;;;5021308;28;20087;-53
2022/09/26 06:55:02;;;;;;;13.13;8.10;;;10.80;91.50;;;;;;5023759;28;20096;-55
2022/09/26 06:57:40;;;;;;;9.68;6.55;;;10.80;91.40;;;;;;5011576;28;20036;-53
2022/09/26 07:00:09;;;;;;;27.27;10.13;;;10.90;91.20;;;;;;5027367;28;20033;-54
2022/09/26 07:02:36;;;;;;;14.68;7.40;;;10.90;91.30;;;;;;5027552;28;20087;-54
2022/09/26 07:05:04;;;;;;;10.23;7.38;;;10.90;91.30;;;;;;5025108;28;20108;-56
2022/09/26 07:07:31;;;;;;;13.48;7.97;;;10.90;91.20;;;;;;5009249;28;20030;-55
2022/09/26 07:09:58;;;;;;;33.15;10.13;;;11.00;91.10;;;;;;5022246;28;20021;-52
2022/09/26 07:12:25;;;;;;;13.02;7.43;;;11.00;91.10;;;;;;4996324;28;20026;-51
2022/09/26 07:14:54;;;;;;;12.75;7.55;;;11.00;91.00;;;;;;5019586;28;20446;-55
2022/09/26 07:17:21;;;;;;;13.07;7.53;;;11.00;90.90;;;;;;5028621;28;20061;-55
2022/09/26 07:19:51;;;;;;;12.68;7.63;;;11.00;90.90;;;;;;5014860;28;20038;-55
2022/09/26 07:22:18;;;;;;;8.98;7.43;;;11.00;90.90;;;;;;5030024;28;20037;-55
2022/09/26 07:24:47;;;;;;;13.23;8.27;;;11.00;90.70;;;;;;5032118;28;20112;-54
2022/09/26 07:27:15;;;;;;;10.70;8.02;;;11.00;90.60;;;;;;5032474;28;20033;-55
2022/09/26 07:29:46;;;;;;;14.80;8.70;;;11.10;90.60;;;;;;5032929;28;20064;-54
2022/09/26 07:32:13;;;;;;;9.90;7.90;;;11.10;90.60;;;;;;5013992;28;20065;-54
2022/09/26 07:34:41;;;;;;;11.60;7.88;;;11.10;90.40;;;;;;5005060;28;20103;-54
2022/09/26 07:37:08;;;;;;;10.65;7.20;;;11.10;90.10;;;;;;5022516;28;20034;-52
2022/09/26 07:39:35;;;;;;;8.40;7.40;;;11.20;90.00;;;;;;5017034;28;20535;-54
2022/09/26 07:42:02;;;;;;;12.05;8.35;;;11.10;89.90;;;;;;5034967;28;20059;-54
2022/09/26 07:44:28;;;;;;;11.38;8.57;;;11.20;90.00;;;;;;5052551;28;20411;-52
2022/09/26 07:52:31;;;;;;;17.83;8.15;;;11.20;89.70;;;;;;5026826;28;20036;-55
2022/09/26 07:54:58;;;;;;;12.82;8.48;;;11.20;89.80;;;;;;5023024;28;20029;-56
2022/09/26 07:57:25;;;;;;;9.13;7.57;;;11.30;89.70;;;;;;5027696;28;20337;-56
2022/09/26 07:59:54;;;;;;;13.05;7.63;;;11.30;89.60;;;;;;4999888;28;20133;-57
2022/09/26 08:02:25;;;;;;;9.15;7.15;;;11.40;89.50;;;;;;5031738;28;20029;-57
2022/09/26 08:04:53;;;;;;;11.52;8.00;;;11.30;89.40;;;;;;5032407;28;20116;-56
2022/09/26 08:07:20;;;;;;;10.70;7.47;;;11.30;89.40;;;;;;5024320;28;20452;-57
2022/09/26 08:09:51;;;;;;;10.93;7.80;;;11.30;89.40;;;;;;5012512;28;20049;-56
2022/09/26 08:12:17;;;;;;;12.40;8.20;;;11.30;89.40;;;;;;5001555;28;20037;-57
2022/09/26 08:14:47;;;;;;;11.48;6.53;;;11.30;89.50;;;;;;5023294;28;20025;-57
2022/09/26 08:17:18;;;;;;;10.25;7.28;;;11.30;89.60;;;;;;5009901;28;20036;-58
2022/09/26 08:19:45;;;;;;;10.88;7.00;;;11.30;89.60;;;;;;5026291;28;20053;-58
2022/09/26 08:22:13;;;;;;;12.57;7.05;;;11.30;89.50;;;;;;5030051;28;20029;-54
2022/09/26 08:24:39;;;;;;;9.50;6.75;;;11.20;89.60;;;;;;5032303;28;20033;-55
2022/09/26 08:27:08;;;;;;;11.35;7.32;;;11.20;89.50;;;;;;5031680;28;20047;-59
2022/09/26 08:29:35;;;;;;;14.15;6.95;;;11.20;89.50;;;;;;5031748;28;20025;-59
2022/09/26 08:32:02;;;;;;;8.45;6.45;;;11.30;89.60;;;;;;5031772;28;20025;-58
2022/09/26 08:34:30;;;;;;;9.70;7.35;;;11.20;89.60;;;;;;5030063;28;20052;-57
2022/09/26 08:36:58;;;;;;;10.43;7.32;;;11.30;89.60;;;;;;5029843;28;20346;-58
2022/09/26 08:39:23;;;;;;;10.50;6.82;;;11.30;89.80;;;;;;5014358;28;20033;-58
2022/09/26 08:42:08;;;;;;;9.90;6.63;;;11.40;89.80;;;;;;5031525;28;20054;-56
2022/09/26 08:48:27;;;;;;;8.25;6.70;;;11.30;89.50;;;;;;5005805;28;20121;-53
2022/09/26 08:50:58;;;;;;;8.05;6.65;;;11.40;89.60;;;;;;5031405;28;20043;-53
2022/09/26 08:53:28;;;;;;;11.52;6.38;;;11.40;89.20;;;;;;5012044;28;20038;-52
2022/09/26 08:55:56;;;;;;;8.70;5.63;;;11.40;89.20;;;;;;5031395;28;20041;-51
2022/09/26 08:58:44;;;;;;;7.07;5.97;;;11.40;89.00;;;;;;4997923;28;20116;-51
2022/09/26 09:01:23;;;;;;;7.03;5.43;;;11.40;88.80;;;;;;5031362;28;20434;-51
2022/09/26 09:04:15;;;;;;;7.88;5.85;;;11.50;88.60;;;;;;5030716;28;20041;-50
2022/09/26 09:06:43;;;;;;;6.80;4.95;;;11.50;88.10;;;;;;4994522;28;20029;-50
2022/09/26 09:09:14;;;;;;;9.15;5.28;;;11.60;88.50;;;;;;5026485;28;20405;-52
2022/09/26 09:12:06;;;;;;;7.10;4.25;;;11.70;88.20;;;;;;5030999;28;20108;-49
2022/09/26 09:14:53;;;;;;;6.53;4.72;;;11.90;88.00;;;;;;5013392;28;20033;-49
2022/09/26 09:17:52;;;;;;;6.53;4.40;;;11.80;87.20;;;;;;5013601;28;20033;-46
2022/09/26 09:20:32;;;;;;;7.22;3.92;;;11.70;87.00;;;;;;5029884;28;20029;-47
2022/09/26 09:23:34;;;;;;;8.00;4.35;;;11.60;87.10;;;;;;5022196;28;20029;-47
2022/09/26 09:26:20;;;;;;;6.25;4.30;;;11.60;87.20;;;;;;5030839;28;20038;-48
2022/09/26 09:29:18;;;;;;;8.48;4.53;;;11.60;87.30;;;;;;5029973;28;20025;-48
2022/09/26 09:31:45;;;;;;;5.93;4.03;;;11.60;87.10;;;;;;5030806;28;20119;-48
2022/09/26 09:34:24;;;;;;;10.77;4.70;;;11.60;87.50;;;;;;5030492;28;20030;-46
2022/09/26 09:37:07;;;;;;;9.00;3.72;;;11.70;87.30;;;;;;5022871;28;20048;-45
2022/09/26 09:39:38;;;;;;;6.30;3.90;;;11.80;86.80;;;;;;5027132;28;20026;-49
2022/09/26 09:42:42;;;;;;;6.03;3.85;;;11.80;86.50;;;;;;5013104;28;20044;-45
2022/09/26 09:45:52;;;;;;;7.10;4.18;;;11.90;86.60;;;;;;5007667;28;20091;-44
2022/09/26 09:48:18;;;;;;;7.93;4.07;;;11.90;86.40;;;;;;4948149;28;20452;-44
2022/09/26 09:51:21;;;;;;;6.40;3.95;;;11.90;85.90;;;;;;5001466;28;20030;-44
2022/09/26 09:54:39;;;;;;;6.72;4.10;;;11.90;86.50;;;;;;5004461;28;20073;-46
2022/09/26 09:57:42;;;;;;;7.65;4.20;;;12.00;86.20;;;;;;5009265;28;20086;-44
2022/09/26 10:00:17;;;;;;;5.90;4.28;;;12.10;86.10;;;;;;5009907;28;20037;-47
2022/09/26 10:03:14;;;;;;;7.45;4.18;;;12.20;85.70;;;;;;5010206;28;20101;-44
2022/09/26 10:06:00;;;;;;;7.80;4.80;;;12.20;85.20;;;;;;5009467;28;20041;-43
2022/09/26 10:08:32;;;;;;;7.75;4.35;;;12.20;85.40;;;;;;4992537;28;20049;-48
2022/09/26 10:11:19;;;;;;;10.07;4.43;;;12.30;85.70;;;;;;4973241;28;20053;-45
2022/09/26 10:13:52;;;;;;;5.65;4.38;;;12.40;85.50;;;;;;4990544;28;20053;-43
2022/09/26 10:16:19;;;;;;;7.15;3.60;;;12.40;84.90;;;;;;5005517;28;20045;-48
2022/09/26 10:19:05;;;;;;;9.88;4.40;;;12.40;85.10;;;;;;5009858;28;20021;-44
2022/09/26 10:21:49;;;;;;;5.35;3.20;;;12.40;84.80;;;;;;5009905;28;20105;-46
2022/09/26 10:24:33;;;;;;;8.48;4.30;;;12.50;85.00;;;;;;5006909;28;20030;-46
2022/09/26 10:27:17;;;;;;;9.55;4.03;;;12.40;84.80;;;;;;5010168;28;20499;-48
2022/09/26 10:29:46;;;;;;;5.38;3.58;;;12.40;84.80;;;;;;5010021;28;20030;-47
2022/09/26 10:32:16;;;;;;;6.05;4.18;;;12.50;84.90;;;;;;5009842;28;20037;-46
2022/09/26 10:35:00;;;;;;;6.20;3.90;;;12.50;84.70;;;;;;4991620;28;20044;-46
2022/09/26 10:37:29;;;;;;;7.30;4.10;;;12.40;84.30;;;;;;4992329;28;20125;-45
2022/09/26 10:42:48;;;;;;;6.45;3.88;;;12.40;84.50;;;;;;4989393;28;20089;-45
2022/09/26 10:45:26;;;;;;;10.23;4.85;;;12.40;84.90;;;;;;5006514;28;20034;-44
2022/09/26 10:47:58;;;;;;;6.78;3.70;;;12.40;84.80;;;;;;5009241;28;20383;-44
2022/09/26 10:50:28;;;;;;;7.10;3.88;;;12.40;84.80;;;;;;5017726;28;20450;-44
2022/09/26 10:53:01;;;;;;;7.50;4.10;;;12.40;84.50;;;;;;5029589;28;20022;-49
2022/09/26 10:55:57;;;;;;;9.30;4.05;;;12.50;84.50;;;;;;5027001;28;20438;-44
2022/09/26 10:58:28;;;;;;;6.60;3.58;;;12.60;84.60;;;;;;5024328;28;20077;-44
2022/09/26 11:00:59;;;;;;;7.38;4.20;;;12.70;84.70;;;;;;5028369;28;20032;-44
2022/09/26 11:03:43;;;;;;;10.20;5.43;;;12.70;84.50;;;;;;5029584;28;20025;-46
2022/09/26 11:06:32;;;;;;;7.18;4.38;;;12.70;84.60;;;;;;5011943;28;20029;-48
2022/09/26 11:09:02;;;;;;;8.47;3.87;;;12.70;84.40;;;;;;5027549;28;20034;-44
2022/09/26 11:11:35;;;;;;;7.85;3.58;;;12.70;84.40;;;;;;4986281;28;20029;-45
2022/09/26 11:14:06;;;;;;;5.20;3.05;;;12.70;83.90;;;;;;5009372;28;20029;-46
2022/09/26 11:16:50;;;;;;;5.60;3.40;;;12.70;84.10;;;;;;5009342;28;20328;-44
2022/09/26 11:19:51;;;;;;;5.35;3.58;;;12.60;83.90;;;;;;5009638;28;20029;-48
2022/09/26 11:22:36;;;;;;;8.27;3.70;;;12.50;84.70;;;;;;5009211;28;20485;-45
2022/09/26 11:25:26;;;;;;;6.43;3.67;;;12.40;85.60;;;;;;4980225;28;20038;-53
2022/09/26 11:28:40;;;;;;;12.52;3.80;;;12.40;86.50;;;;;;5008282;28;20088;-59
2022/09/26 11:31:21;;;;;;;8.05;4.20;;;12.10;87.00;;;;;;5007165;28;20039;-54
2022/09/26 11:33:47;;;;;;;6.30;4.20;;;12.00;87.80;;;;;;5028991;28;20026;-61
2022/09/26 11:36:47;;;;;;;5.32;3.95;;;11.90;88.30;;;;;;5028842;28;20045;-57
2022/09/26 11:39:37;;;;;;;8.93;5.07;;;11.80;88.60;;;;;;5029018;28;20037;-58
2022/09/26 11:42:15;;;;;;;6.60;4.50;;;11.70;89.10;;;;;;5024504;28;20060;-56
2022/09/26 11:44:59;;;;;;;10.55;5.35;;;11.70;89.40;;;;;;5028336;28;20033;-56
2022/09/26 11:48:06;;;;;;;9.30;5.22;;;11.70;89.50;;;;;;5028736;28;20354;-59
2022/09/26 11:50:53;;;;;;;6.95;5.45;;;11.60;89.80;;;;;;5028039;28;20029;-60
2022/09/26 11:53:39;;;;;;;8.07;5.50;;;11.70;90.20;;;;;;5011192;28;20124;-56
2022/09/26 11:56:36;;;;;;;8.35;5.55;;;11.70;90.00;;;;;;5027011;28;20040;-52
2022/09/26 11:59:16;;;;;;;9.48;5.32;;;11.80;90.40;;;;;;5032155;28;20064;-52
2022/09/26 12:01:54;;;;;;;;;;;11.80;90.20;;;;;;5032062;28;20030;-52
2022/09/26 12:04:48;;;;;;;9.57;5.85;;;11.70;90.20;;;;;;5032132;28;19909;-55
2022/09/26 12:07:48;;;;;;;7.25;5.50;;;11.80;90.40;;;;;;5014735;28;20454;-58
2022/09/26 12:10:52;;;;;;;10.50;6.15;;;11.70;90.40;;;;;;5030128;28;20033;-58
2022/09/26 12:13:51;;;;;;;8.23;5.88;;;11.70;90.50;;;;;;5032112;28;20041;-58
2022/09/26 12:16:45;;;;;;;7.32;5.45;;;11.60;90.70;;;;;;5033002;28;20041;-56
2022/09/26 12:19:35;;;;;;;8.63;6.53;;;11.60;90.70;;;;;;5024591;28;20457;-51
2022/09/26 12:22:36;;;;;;;10.57;6.15;;;11.60;90.80;;;;;;5012516;28;20065;-55
2022/09/26 12:25:23;;;;;;;13.10;5.93;;;11.60;91.00;;;;;;5023778;28;20119;-55
2022/09/26 12:28:19;;;;;;;12.15;7.07;;;11.60;90.90;;;;;;5013012;28;20026;-53
2022/09/26 12:31:04;;;;;;;7.60;6.43;;;11.60;91.10;;;;;;5031760;28;20026;-54
2022/09/26 12:34:16;;;;;;;9.70;6.53;;;11.60;91.10;;;;;;5031327;28;20053;-56
2022/09/26 12:37:08;;;;;;;10.35;6.47;;;11.70;91.20;;;;;;4998302;28;20050;-57
2022/09/26 12:40:02;;;;;;;7.57;6.18;;;11.70;91.40;;;;;;5019949;28;20084;-58
2022/09/26 12:42:39;;;;;;;7.03;5.70;;;11.60;91.40;;;;;;5015652;28;20022;-60
2022/09/26 12:45:41;;;;;;;10.07;6.75;;;11.60;91.70;;;;;;5011965;28;20459;-59
2022/09/26 12:48:19;;;;;;;10.35;6.68;;;11.60;91.80;;;;;;5012351;28;20475;-53
2022/09/26 12:51:06;;;;;;;8.65;6.43;;;11.60;92.00;;;;;;5012486;28;20110;-56
2022/09/26 12:54:08;;;;;;;7.50;6.25;;;11.60;92.00;;;;;;5016930;28;20056;-57
2022/09/26 12:57:16;;;;;;;6.75;5.63;;;11.60;92.20;;;;;;5025239;28;20068;-56
2022/09/26 13:00:21;;;;;;;7.63;5.55;;;11.60;92.30;;;;;;5014000;28;20037;-53
2022/09/26 13:03:35;;;;;;;7.47;6.07;;;11.60;92.30;;;;;;4948286;29;20039;-52
2022/09/26 13:06:26;;;;;;;7.35;6.13;;;11.70;92.40;;;;;;4948284;28;20039;-52
2022/09/26 13:09:11;;;;;;;7.78;5.80;;;11.70;92.40;;;;;;4950192;29;20365;-48
2022/09/26 13:11:58;;;;;;;8.35;5.95;;;11.70;92.40;;;;;;4949271;29;20441;-55
2022/09/26 13:14:36;;;;;;;8.45;5.78;;;11.70;92.40;;;;;;4948198;28;20062;-55
2022/09/26 13:17:23;;;;;;;7.70;5.72;;;11.70;92.30;;;;;;4933589;29;20039;-51
2022/09/26 13:20:00;;;;;;;8.65;6.97;;;11.70;92.40;;;;;;4949240;29;20145;-53
2022/09/26 13:22:43;;;;;;;7.82;6.18;;;11.80;92.50;;;;;;4947607;29;20574;-52
2022/09/26 13:25:17;;;;;;;7.18;6.05;;;11.80;92.30;;;;;;4939355;28;20138;-55
2022/09/26 13:28:04;;;;;;;7.90;6.70;;;11.70;92.30;;;;;;4948826;29;20187;-56
2022/09/26 13:30:45;;;;;;;7.72;6.63;;;11.70;92.40;;;;;;4948454;29;20142;-51
2022/09/26 13:33:48;;;;;;;7.38;6.68;;;11.60;92.30;;;;;;4965129;28;20451;-57
2022/09/26 13:36:19;;;;;;;8.23;7.40;;;11.60;92.40;;;;;;5004052;28;20050;-57
2022/09/26 13:38:52;;;;;;;9.23;6.57;;;11.50;92.50;;;;;;5023052;28;20021;-57
2022/09/26 13:41:47;;;;;;;10.15;7.25;;;11.50;92.70;;;;;;5020021;28;20559;-57
2022/09/26 13:44:31;;;;;;;8.55;7.47;;;11.50;92.70;;;;;;5016327;28;20107;-57
2022/09/26 13:47:28;;;;;;;8.15;7.32;;;11.50;92.80;;;;;;5002714;28;20026;-56
2022/09/26 13:50:33;;;;;;;9.80;8.70;;;11.50;92.90;;;;;;5023323;28;20329;-53
2022/09/26 13:53:06;;;;;;;9.48;8.57;;;11.40;92.90;;;;;;5020041;28;20125;-56